Serenade Of The Seas — C6FV8 — position and weather

sailwx.info

Track history (hours):
 
Tides and Currents Weather Stations Pressure Air Temp Water Temp Dewpoint Dewpoint Depression Visibility Wind Speed Wind Dir Waves Ship Positions

Serenade Of The Seas

Operator: Royal Caribbean Cruises Ltd

Last reported at 2020-Aug-09 06:00 UTC. Time now 2020-Aug-09 23:37 UTC.
Position N 13°12' W 059°48'.

Length 294 m; draft 8.5 m.

Type: Ship. MMSI: 311492000.

Wind from 080 at 25 knots

Barometer 1015.0 mb
Air temperature 28.0 ° C
Visibility: greater than 5.4 NM
Water temperature 29.0 ° C

Date/timePositionNaut miles runAvg speedWind from/ knotsBaromVisibWave heightAir tempDewpointWater temp
2020-Aug-09 06:00N 13°12' W 059°48'4 0.1 080 / 251015.0 5.4 28.0 29.0
2020-Aug-08 00:00N 13°13' W 059°44'2 0.9
2020-Aug-07 21:56N 13°14' W 059°46'4 1.6
2020-Aug-07 19:30N 13°10' W 059°44'5 2.7
2020-Aug-07 17:30N 13°05' W 059°45'3 2.3
2020-Aug-07 16:14N 13°03' W 059°47'3 1.2
2020-Aug-07 14:00N 13°05' W 059°46'2 1.0
2020-Aug-07 12:02N 13°07' W 059°46'6 1.0
2020-Aug-07 06:00N 13°12' W 059°42'   090 / 181015.0 5.4 27.8 29.0
2020-Aug-05 00:30N 13°08' W 059°46'5 2.3
2020-Aug-04 22:29N 13°06' W 059°42'4 2.4
2020-Aug-04 21:00N 13°06' W 059°39'0 0.0
2020-Aug-04 20:00N 13°06' W 059°39'9 0.2
2020-Aug-03 06:34N 13°13' W 059°45'0 0.4
2020-Aug-03 05:28N 13°13' W 059°44'3 3.0
2020-Aug-03 04:30N 13°10' W 059°44'3 3.1
2020-Aug-03 03:31N 13°09' W 059°47'9 0.6
2020-Aug-02 12:41N 13°06' W 059°39'0 0.0
2020-Aug-02 12:29N 13°06' W 059°39'0 0.0
2020-Aug-01 15:58N 13°06' W 059°39'6 2.9
2020-Aug-01 13:58N 13°09' W 059°44'3 1.3
2020-Aug-01 11:29N 13°12' W 059°45'2 0.3
2020-Aug-01 05:30N 13°13' W 059°46'3 1.4
2020-Aug-01 03:00N 13°10' W 059°45'1 1.4
2020-Aug-01 02:25N 13°09' W 059°45'7 0.4
2020-Jul-31 09:59N 13°06' W 059°39'  
Track history (hours):
 
Tides and Currents Weather Stations Pressure Air Temp Water Temp Dewpoint Dewpoint Depression Visibility Wind Speed Wind Dir Waves Ship Positions

Serenade Of The Seas

Operator: Royal Caribbean Cruises Ltd

Last reported at 2020-Aug-09 06:00 UTC. Time now 2020-Aug-09 23:37 UTC.
Position N 13°12' W 059°48'.

Length 294 m; draft 8.5 m.

Type: Ship. MMSI: 311492000.

Wind from 080 at 25 knots

Barometer 1015.0 mb
Air temperature 28.0 ° C
Visibility: greater than 5.4 NM
Water temperature 29.0 ° C

Date/timePositionNaut miles runAvg speedWind from/ knotsBaromVisibWave heightAir tempDewpointWater temp
2020-Aug-09 06:00N 13°12' W 059°48'4 0.1 080 / 251015.0 5.4 28.0 29.0
2020-Aug-08 00:00N 13°13' W 059°44'2 0.9
2020-Aug-07 21:56N 13°14' W 059°46'4 1.6
2020-Aug-07 19:30N 13°10' W 059°44'5 2.7
2020-Aug-07 17:30N 13°05' W 059°45'3 2.3
2020-Aug-07 16:14N 13°03' W 059°47'3 1.2
2020-Aug-07 14:00N 13°05' W 059°46'2 1.0
2020-Aug-07 12:02N 13°07' W 059°46'6 1.0
2020-Aug-07 06:00N 13°12' W 059°42'   090 / 181015.0 5.4 27.8 29.0
2020-Aug-05 00:30N 13°08' W 059°46'5 2.3
2020-Aug-04 22:29N 13°06' W 059°42'4 2.4
2020-Aug-04 21:00N 13°06' W 059°39'0 0.0
2020-Aug-04 20:00N 13°06' W 059°39'9 0.2
2020-Aug-03 06:34N 13°13' W 059°45'0 0.4
2020-Aug-03 05:28N 13°13' W 059°44'3 3.0
2020-Aug-03 04:30N 13°10' W 059°44'3 3.1
2020-Aug-03 03:31N 13°09' W 059°47'9 0.6
2020-Aug-02 12:41N 13°06' W 059°39'0 0.0
2020-Aug-02 12:29N 13°06' W 059°39'0 0.0
2020-Aug-01 15:58N 13°06' W 059°39'6 2.9
2020-Aug-01 13:58N 13°09' W 059°44'3 1.3
2020-Aug-01 11:29N 13°12' W 059°45'2 0.3
2020-Aug-01 05:30N 13°13' W 059°46'3 1.4
2020-Aug-01 03:00N 13°10' W 059°45'1 1.4
2020-Aug-01 02:25N 13°09' W 059°45'7 0.4
2020-Jul-31 09:59N 13°06' W 059°39'  

Dump ship's entire track history